Time;durP1;ratioP1;P1;durP2;ratioP2;P2;SDS_P1;SDS_P2;PMS_P1;PMS_P2;Temp;Humidity;BMP_temperature;BMP_pressure;BME280_temperature;BME280_humidity;BME280_pressure;Samples;Min_cycle;Max_cycle;Signal;HPM_P1;HPM_P2
2023/03/16 00:01:53;;;;;;;11.52;6.57;;;;;;;;;;5012409;28;20328;-74
2023/03/16 00:04:38;;;;;;;10.13;6.35;;;;;;;;;;5022147;28;20037;-74
2023/03/16 00:07:24;;;;;;;11.27;6.47;;;;;;;;;;5021780;28;20030;-75
2023/03/16 00:10:12;;;;;;;12.35;6.05;;;;;;;;;;5020333;28;20180;-73
2023/03/16 00:12:57;;;;;;;11.98;5.95;;;;;;;;;;5005909;28;20017;-71
2023/03/16 00:15:52;;;;;;;10.95;6.38;;;;;;;;;;5011130;28;20053;-74
2023/03/16 00:18:40;;;;;;;10.50;5.82;;;;;;;;;;5020538;28;20025;-71
2023/03/16 00:21:25;;;;;;;11.35;5.57;;;;;;;;;;5022127;28;20043;-71
2023/03/16 00:24:11;;;;;;;11.25;6.32;;;;;;;;;;5020090;28;20195;-70
2023/03/16 00:26:56;;;;;;;10.93;6.07;;;;;;;;;;5006983;28;20052;-75
2023/03/16 00:29:48;;;;;;;10.00;5.90;;;;;;;;;;5007334;28;20032;-70
2023/03/16 00:32:35;;;;;;;10.95;5.97;;;;;;;;;;5020307;28;20504;-75
2023/03/16 00:35:20;;;;;;;9.52;6.50;;;;;;;;;;5001613;28;20037;-75
2023/03/16 00:38:05;;;;;;;13.52;6.03;;;;;;;;;;5013587;28;20057;-74
2023/03/16 00:40:52;;;;;;;9.82;6.22;;;;;;;;;;5020487;28;20025;-74
2023/03/16 00:43:40;;;;;;;9.55;6.75;;;;;;;;;;5016069;28;20190;-75
2023/03/16 00:46:26;;;;;;;11.85;6.65;;;;;;;;;;4988989;28;20060;-73
2023/03/16 00:49:12;;;;;;;10.15;5.70;;;;;;;;;;4995172;28;20083;-75
2023/03/16 00:51:57;;;;;;;10.68;5.80;;;;;;;;;;5010799;28;20030;-72
2023/03/16 00:54:43;;;;;;;10.90;6.40;;;;;;;;;;5004637;28;20033;-73
2023/03/16 00:57:29;;;;;;;10.82;6.13;;;;;;;;;;4985007;28;20277;-74
2023/03/16 01:00:15;;;;;;;10.65;6.50;;;;;;;;;;4990604;28;20037;-71
2023/03/16 01:03:01;;;;;;;10.05;6.82;;;;;;;;;;5007762;28;20034;-70
2023/03/16 01:05:46;;;;;;;11.43;6.43;;;;;;;;;;5005172;28;20676;-72
2023/03/16 01:08:32;;;;;;;11.90;6.93;;;;;;;;;;5026870;28;20043;-72
2023/03/16 01:11:18;;;;;;;13.32;6.97;;;;;;;;;;5015988;28;20604;-72
2023/03/16 01:14:03;;;;;;;11.35;6.32;;;;;;;;;;5010538;28;20693;-70
2023/03/16 01:16:49;;;;;;;10.77;5.55;;;;;;;;;;5021992;28;20048;-71
2023/03/16 01:19:35;;;;;;;11.75;7.10;;;;;;;;;;5024352;28;20040;-70
2023/03/16 01:22:20;;;;;;;10.55;6.28;;;;;;;;;;5024725;28;20507;-73
2023/03/16 01:25:05;;;;;;;10.68;6.65;;;;;;;;;;4999543;28;20108;-74
2023/03/16 01:27:52;;;;;;;10.13;6.60;;;;;;;;;;5019464;28;20095;-79
2023/03/16 01:30:37;;;;;;;12.27;6.75;;;;;;;;;;5024819;28;20041;-79
2023/03/16 01:33:24;;;;;;;10.35;6.65;;;;;;;;;;5024676;28;20096;-80
2023/03/16 01:36:14;;;;;;;9.88;6.40;;;;;;;;;;5015069;28;20125;-80
2023/03/16 01:38:59;;;;;;;11.95;6.90;;;;;;;;;;5031017;28;20476;-80
2023/03/16 01:41:45;;;;;;;10.93;6.20;;;;;;;;;;5014130;28;20021;-71
2023/03/16 01:44:48;;;;;;;12.77;7.47;;;;;;;;;;5027822;28;20057;-79
2023/03/16 01:47:37;;;;;;;9.80;6.55;;;;;;;;;;5013040;28;20503;-79
2023/03/16 01:50:22;;;;;;;11.52;6.82;;;;;;;;;;5005765;28;20516;-78
2023/03/16 01:53:08;;;;;;;15.80;7.22;;;;;;;;;;5007922;28;20025;-81
2023/03/16 01:55:54;;;;;;;9.95;7.03;;;;;;;;;;5032973;28;20036;-81
2023/03/16 01:58:41;;;;;;;10.40;6.53;;;;;;;;;;5014652;28;20028;-72
2023/03/16 02:01:27;;;;;;;11.50;8.15;;;;;;;;;;5015791;28;20049;-73
2023/03/16 02:04:47;;;;;;;9.48;6.18;;;;;;;;;;5026135;28;20040;-71
2023/03/16 02:07:34;;;;;;;12.55;8.18;;;;;;;;;;4973361;28;20105;-70
2023/03/16 02:10:19;;;;;;;12.75;7.85;;;;;;;;;;5026674;28;20158;-71
2023/03/16 02:13:05;;;;;;;10.45;7.60;;;;;;;;;;5019888;28;20025;-72
2023/03/16 02:15:51;;;;;;;12.65;7.30;;;;;;;;;;5014185;28;20053;-69
2023/03/16 02:18:36;;;;;;;14.50;8.40;;;;;;;;;;5013812;28;20075;-71
2023/03/16 02:21:24;;;;;;;13.98;8.77;;;;;;;;;;4999365;28;20449;-74
2023/03/16 02:24:09;;;;;;;13.52;8.40;;;;;;;;;;5006525;28;20436;-73
2023/03/16 02:26:57;;;;;;;12.65;7.75;;;;;;;;;;5022635;28;20069;-74
2023/03/16 02:29:45;;;;;;;14.60;8.80;;;;;;;;;;5022504;28;20041;-76
2023/03/16 02:32:31;;;;;;;11.88;8.00;;;;;;;;;;5009564;28;20095;-75
2023/03/16 02:35:16;;;;;;;14.75;8.73;;;;;;;;;;5001997;28;20048;-75
2023/03/16 02:38:02;;;;;;;12.20;8.25;;;;;;;;;;5024136;28;21831;-75
2023/03/16 02:40:56;;;;;;;15.80;9.40;;;;;;;;;;5008497;28;20052;-74
2023/03/16 02:43:54;;;;;;;12.77;8.30;;;;;;;;;;5008643;28;20108;-73
2023/03/16 02:46:42;;;;;;;14.63;8.32;;;;;;;;;;5024494;28;20044;-76
2023/03/16 02:49:35;;;;;;;14.85;9.52;;;;;;;;;;5006327;28;20040;-74
2023/03/16 02:52:20;;;;;;;17.65;9.77;;;;;;;;;;5020278;28;22073;-74
2023/03/16 02:55:07;;;;;;;16.40;9.05;;;;;;;;;;5015772;28;20034;-75
2023/03/16 02:57:52;;;;;;;13.60;8.93;;;;;;;;;;5018339;28;21733;-75
2023/03/16 03:00:37;;;;;;;14.77;9.85;;;;;;;;;;5010505;28;20030;-75
2023/03/16 03:03:22;;;;;;;16.38;8.95;;;;;;;;;;5006869;28;20037;-75
2023/03/16 03:06:08;;;;;;;14.82;9.77;;;;;;;;;;4994447;28;20037;-75
2023/03/16 03:08:53;;;;;;;18.08;10.00;;;;;;;;;;5012905;28;20041;-76
2023/03/16 03:11:39;;;;;;;14.52;9.20;;;;;;;;;;5012939;28;20059;-75
2023/03/16 03:14:24;;;;;;;16.50;10.32;;;;;;;;;;5011429;28;20499;-70
2023/03/16 03:17:12;;;;;;;14.93;9.65;;;;;;;;;;5025142;28;20025;-72
2023/03/16 03:19:58;;;;;;;17.42;11.07;;;;;;;;;;5016476;28;20412;-70
2023/03/16 03:22:44;;;;;;;15.20;10.23;;;;;;;;;;5014660;28;20037;-71
2023/03/16 03:25:33;;;;;;;16.85;9.65;;;;;;;;;;5031452;28;20060;-72
2023/03/16 03:28:18;;;;;;;15.18;10.65;;;;;;;;;;5024355;28;20030;-71
2023/03/16 03:31:04;;;;;;;14.20;9.80;;;;;;;;;;5013325;28;20029;-76
2023/03/16 03:33:49;;;;;;;15.68;9.95;;;;;;;;;;5012237;28;20068;-70
2023/03/16 03:36:34;;;;;;;14.98;10.23;;;;;;;;;;5006017;28;20030;-74
2023/03/16 03:39:19;;;;;;;13.52;9.07;;;;;;;;;;5015806;28;20033;-74
2023/03/16 03:42:05;;;;;;;14.98;9.02;;;;;;;;;;5007125;28;20045;-76
2023/03/16 03:44:50;;;;;;;13.88;9.10;;;;;;;;;;5009954;28;20046;-74
2023/03/16 03:47:35;;;;;;;15.18;9.73;;;;;;;;;;5007341;28;20026;-75
2023/03/16 03:50:21;;;;;;;13.18;8.73;;;;;;;;;;5009974;28;20033;-73
2023/03/16 03:53:06;;;;;;;15.35;9.57;;;;;;;;;;5021102;28;20030;-74
2023/03/16 03:55:52;;;;;;;14.95;9.27;;;;;;;;;;4994184;28;20489;-75
2023/03/16 03:58:37;;;;;;;13.98;9.07;;;;;;;;;;4999309;28;20117;-74
2023/03/16 04:01:22;;;;;;;14.52;8.85;;;;;;;;;;5024051;28;20555;-75
2023/03/16 04:04:07;;;;;;;14.60;8.82;;;;;;;;;;5024099;28;20318;-74
2023/03/16 04:06:52;;;;;;;14.82;10.27;;;;;;;;;;5004401;28;20027;-74
2023/03/16 04:09:38;;;;;;;12.00;7.63;;;;;;;;;;5011788;28;20144;-79
2023/03/16 04:12:23;;;;;;;14.43;9.30;;;;;;;;;;5018980;28;20025;-74
2023/03/16 04:15:09;;;;;;;14.02;8.73;;;;;;;;;;5018788;28;20090;-71
2023/03/16 04:17:55;;;;;;;16.15;9.20;;;;;;;;;;5019601;28;20044;-70
2023/03/16 04:20:40;;;;;;;12.95;9.30;;;;;;;;;;5010807;28;20803;-70
2023/03/16 04:23:25;;;;;;;14.40;9.02;;;;;;;;;;5012199;28;20040;-69
2023/03/16 04:26:11;;;;;;;15.52;8.38;;;;;;;;;;5024251;28;20029;-73
2023/03/16 04:28:56;;;;;;;14.70;9.20;;;;;;;;;;5022407;28;20033;-80
2023/03/16 04:31:42;;;;;;;13.90;8.85;;;;;;;;;;5002984;28;20036;-75
2023/03/16 04:34:27;;;;;;;13.65;8.32;;;;;;;;;;5013652;28;20033;-73
2023/03/16 04:37:12;;;;;;;13.45;8.20;;;;;;;;;;5017097;28;20037;-74
2023/03/16 04:39:58;;;;;;;13.65;9.20;;;;;;;;;;5004425;28;20392;-75
2023/03/16 04:42:44;;;;;;;15.73;8.82;;;;;;;;;;5000959;28;20025;-73
2023/03/16 04:45:29;;;;;;;14.75;9.23;;;;;;;;;;5004951;28;20377;-70
2023/03/16 04:48:14;;;;;;;12.57;8.45;;;;;;;;;;5019018;28;20041;-74
2023/03/16 04:51:00;;;;;;;12.73;8.65;;;;;;;;;;5019165;28;20033;-74
2023/03/16 04:53:45;;;;;;;11.80;8.30;;;;;;;;;;5030735;28;20086;-76
2023/03/16 04:56:30;;;;;;;13.82;8.63;;;;;;;;;;5003044;28;20359;-72
2023/03/16 04:59:16;;;;;;;14.10;8.38;;;;;;;;;;4997852;28;20705;-73
2023/03/16 05:02:01;;;;;;;12.38;7.38;;;;;;;;;;5018418;28;20056;-74
2023/03/16 05:04:47;;;;;;;12.90;7.25;;;;;;;;;;5021049;28;20029;-75
2023/03/16 05:07:32;;;;;;;13.45;8.70;;;;;;;;;;4991613;28;20227;-73
2023/03/16 05:10:18;;;;;;;14.68;7.53;;;;;;;;;;4996176;28;20030;-73
2023/03/16 05:13:03;;;;;;;11.90;8.15;;;;;;;;;;5019168;28;20033;-71
2023/03/16 05:15:52;;;;;;;14.70;8.50;;;;;;;;;;5021815;28;20065;-71
2023/03/16 05:18:37;;;;;;;12.85;8.60;;;;;;;;;;5016982;28;20048;-74
2023/03/16 05:21:23;;;;;;;13.70;8.32;;;;;;;;;;5006776;28;20055;-71
2023/03/16 05:24:08;;;;;;;13.43;9.18;;;;;;;;;;4997478;28;20044;-79
2023/03/16 05:26:53;;;;;;;14.48;8.70;;;;;;;;;;5004597;28;20029;-74
2023/03/16 05:29:39;;;;;;;15.35;8.60;;;;;;;;;;5011646;28;20037;-75
2023/03/16 05:32:24;;;;;;;15.18;9.50;;;;;;;;;;4989648;28;20214;-74
2023/03/16 05:35:12;;;;;;;16.50;9.75;;;;;;;;;;4994304;28;20176;-74
2023/03/16 05:37:57;;;;;;;15.18;9.35;;;;;;;;;;5018383;28;20044;-74
2023/03/16 05:40:42;;;;;;;14.23;9.05;;;;;;;;;;5010394;28;20033;-72
2023/03/16 05:43:28;;;;;;;16.00;10.45;;;;;;;;;;5015138;28;20029;-71
2023/03/16 05:46:13;;;;;;;15.15;8.98;;;;;;;;;;5008957;28;20074;-70
2023/03/16 05:48:58;;;;;;;16.58;9.80;;;;;;;;;;5024486;28;20061;-69
2023/03/16 05:51:43;;;;;;;14.32;9.05;;;;;;;;;;5018105;28;20046;-72
2023/03/16 05:54:29;;;;;;;15.02;8.13;;;;;;;;;;5019916;28;20373;-72
2023/03/16 05:57:14;;;;;;;15.88;9.30;;;;;;;;;;5008625;28;20029;-71
2023/03/16 06:00:00;;;;;;;14.63;9.45;;;;;;;;;;4994894;28;20092;-71
2023/03/16 06:02:47;;;;;;;16.08;8.65;;;;;;;;;;5026562;28;20091;-72
2023/03/16 06:05:32;;;;;;;17.60;9.43;;;;;;;;;;5039769;28;20049;-73
2023/03/16 06:08:17;;;;;;;14.77;9.32;;;;;;;;;;5004975;28;20039;-73
2023/03/16 06:11:03;;;;;;;15.00;9.70;;;;;;;;;;5002044;28;20037;-73
2023/03/16 06:13:48;;;;;;;15.70;9.23;;;;;;;;;;5026486;28;20029;-72
2023/03/16 06:16:33;;;;;;;13.15;8.25;;;;;;;;;;5013842;28;20072;-69
2023/03/16 06:19:18;;;;;;;17.45;10.23;;;;;;;;;;5039647;28;20037;-71
2023/03/16 06:22:04;;;;;;;16.63;8.95;;;;;;;;;;5023777;28;20079;-70
2023/03/16 06:24:50;;;;;;;12.70;8.23;;;;;;;;;;5023826;28;20519;-71
2023/03/16 06:27:35;;;;;;;13.23;8.48;;;;;;;;;;5037610;28;20667;-70
2023/03/16 06:30:21;;;;;;;17.50;9.68;;;;;;;;;;5017420;28;20464;-71
2023/03/16 06:33:06;;;;;;;15.73;9.63;;;;;;;;;;5032765;28;20109;-71
2023/03/16 06:35:51;;;;;;;16.27;9.20;;;;;;;;;;5024923;28;20029;-78
2023/03/16 06:38:37;;;;;;;16.80;9.45;;;;;;;;;;5015670;28;20119;-74
2023/03/16 06:41:22;;;;;;;14.75;9.10;;;;;;;;;;5019052;28;20882;-73
2023/03/16 06:44:08;;;;;;;12.65;8.27;;;;;;;;;;5021596;28;20032;-73
2023/03/16 06:46:53;;;;;;;16.67;10.02;;;;;;;;;;4992830;28;20470;-74
2023/03/16 06:49:38;;;;;;;14.82;8.18;;;;;;;;;;4999097;28;20032;-73
2023/03/16 06:52:23;;;;;;;13.32;9.18;;;;;;;;;;5017514;28;20044;-72
2023/03/16 06:55:11;;;;;;;15.98;9.95;;;;;;;;;;5043165;28;20028;-72
2023/03/16 06:57:56;;;;;;;15.30;8.68;;;;;;;;;;5010385;28;20060;-74
2023/03/16 07:00:41;;;;;;;16.00;9.15;;;;;;;;;;4996134;28;20030;-72
2023/03/16 07:03:26;;;;;;;19.52;10.23;;;;;;;;;;5014967;28;20069;-70
2023/03/16 07:06:12;;;;;;;14.70;9.13;;;;;;;;;;5024916;28;20034;-71
2023/03/16 07:08:57;;;;;;;16.05;9.88;;;;;;;;;;5019684;28;20025;-71
2023/03/16 07:11:43;;;;;;;15.82;9.32;;;;;;;;;;5004837;28;20033;-72
2023/03/16 07:14:29;;;;;;;15.27;10.32;;;;;;;;;;5002802;28;20055;-75
2023/03/16 07:17:14;;;;;;;20.83;11.57;;;;;;;;;;5000763;28;20583;-78
2023/03/16 07:19:59;;;;;;;17.90;10.38;;;;;;;;;;5020404;28;20029;-80
2023/03/16 07:22:45;;;;;;;16.30;11.00;;;;;;;;;;5009486;28;20064;-81
2023/03/16 07:25:30;;;;;;;18.90;10.43;;;;;;;;;;5011088;28;20041;-81
2023/03/16 07:28:15;;;;;;;16.80;10.98;;;;;;;;;;5022304;28;20037;-82
2023/03/16 07:31:00;;;;;;;17.75;10.90;;;;;;;;;;5018754;28;20021;-71
2023/03/16 07:33:46;;;;;;;18.13;11.20;;;;;;;;;;5012386;28;20029;-68
2023/03/16 07:36:31;;;;;;;16.25;10.77;;;;;;;;;;5014048;28;20033;-69
2023/03/16 07:39:16;;;;;;;19.35;12.52;;;;;;;;;;5028410;28;20119;-71
2023/03/16 07:42:02;;;;;;;17.98;11.48;;;;;;;;;;5037686;28;20075;-70
2023/03/16 07:44:47;;;;;;;17.58;11.07;;;;;;;;;;5023302;28;20445;-71
2023/03/16 07:47:32;;;;;;;19.15;11.43;;;;;;;;;;5005132;28;20115;-72
2023/03/16 07:50:18;;;;;;;19.88;11.48;;;;;;;;;;5011129;28;20030;-73
2023/03/16 07:53:04;;;;;;;17.45;11.52;;;;;;;;;;5006381;28;20529;-77
2023/03/16 07:55:49;;;;;;;16.75;11.05;;;;;;;;;;5008203;28;20041;-77
2023/03/16 07:58:34;;;;;;;19.85;11.70;;;;;;;;;;5008312;28;20033;-69
2023/03/16 08:01:21;;;;;;;17.05;11.10;;;;;;;;;;5009690;28;20029;-74
2023/03/16 08:04:06;;;;;;;17.08;10.48;;;;;;;;;;5012991;28;20033;-76
2023/03/16 08:06:54;;;;;;;14.50;9.55;;;;;;;;;;5004932;28;20477;-71
2023/03/16 08:09:40;;;;;;;13.73;8.90;;;;;;;;;;5011040;28;20029;-71
2023/03/16 08:12:25;;;;;;;15.30;9.55;;;;;;;;;;5010646;28;20057;-76
2023/03/16 08:15:10;;;;;;;16.17;9.30;;;;;;;;;;5009349;28;20537;-77
2023/03/16 08:17:58;;;;;;;14.65;8.15;;;;;;;;;;5018560;28;20106;-77
2023/03/16 08:20:43;;;;;;;13.48;8.52;;;;;;;;;;5007727;28;20559;-76
2023/03/16 08:23:32;;;;;;;13.32;8.90;;;;;;;;;;4990129;28;20026;-78
2023/03/16 08:26:21;;;;;;;13.87;8.17;;;;;;;;;;5016691;28;20029;-71
2023/03/16 08:29:06;;;;;;;11.73;7.33;;;;;;;;;;5022509;28;20037;-73
2023/03/16 08:31:53;;;;;;;13.32;6.88;;;;;;;;;;5017361;28;20284;-74
2023/03/16 08:34:38;;;;;;;11.68;8.05;;;;;;;;;;5006394;28;20033;-74
2023/03/16 08:37:24;;;;;;;12.35;6.85;;;;;;;;;;5010505;28;20033;-73
2023/03/16 08:40:12;;;;;;;9.73;6.13;;;;;;;;;;5020752;28;20510;-72
2023/03/16 08:42:57;;;;;;;14.95;6.95;;;;;;;;;;5031411;28;22104;-73
2023/03/16 08:45:47;;;;;;;10.45;6.53;;;;;;;;;;5021096;28;20047;-71
2023/03/16 08:48:33;;;;;;;9.50;5.72;;;;;;;;;;5005217;28;20287;-71
2023/03/16 08:51:18;;;;;;;9.57;6.28;;;;;;;;;;5016273;28;20102;-74
2023/03/16 08:54:04;;;;;;;8.95;5.15;;;;;;;;;;5017100;28;20017;-71
2023/03/16 08:56:50;;;;;;;9.68;6.25;;;;;;;;;;5022499;28;20118;-73
2023/03/16 08:59:35;;;;;;;7.88;5.15;;;;;;;;;;5026470;28;20523;-70
2023/03/16 09:02:21;;;;;;;10.45;5.85;;;;;;;;;;5006543;28;20112;-74
2023/03/16 09:05:07;;;;;;;9.80;5.45;;;;;;;;;;5016393;28;20029;-69
2023/03/16 09:07:53;;;;;;;9.82;5.38;;;;;;;;;;5021883;28;20030;-73
2023/03/16 09:10:38;;;;;;;15.80;5.45;;;;;;;;;;4991724;28;20032;-74
2023/03/16 09:13:23;;;;;;;10.90;5.68;;;;;;;;;;5024655;28;20064;-74
2023/03/16 09:16:10;;;;;;;7.82;5.28;;;;;;;;;;5022046;28;20041;-72
2023/03/16 09:18:57;;;;;;;10.15;4.88;;;;;;;;;;5007124;28;20123;-71
2023/03/16 09:21:43;;;;;;;7.43;4.78;;;;;;;;;;5022365;28;20029;-74
2023/03/16 09:24:28;;;;;;;7.93;5.50;;;;;;;;;;5007363;28;20083;-77
2023/03/16 09:27:15;;;;;;;8.80;6.07;;;;;;;;;;4995377;28;20556;-77
2023/03/16 09:30:03;;;;;;;7.65;5.03;;;;;;;;;;5006203;28;20167;-76
2023/03/16 09:32:55;;;;;;;8.77;5.53;;;;;;;;;;5019663;28;20017;-76
2023/03/16 09:35:43;;;;;;;7.25;4.97;;;;;;;;;;4988700;28;20042;-75
2023/03/16 09:38:29;;;;;;;6.13;4.00;;;;;;;;;;4994934;28;20040;-75
2023/03/16 09:41:25;;;;;;;7.13;4.32;;;;;;;;;;4990640;28;20042;-84
2023/03/16 09:44:33;;;;;;;7.88;4.25;;;;;;;;;;4990896;28;20034;-69
2023/03/16 09:47:24;;;;;;;4.57;3.38;;;;;;;;;;4993036;28;20482;-70
2023/03/16 09:50:15;;;;;;;7.93;4.45;;;;;;;;;;5005129;28;20795;-70
2023/03/16 09:53:04;;;;;;;6.43;4.22;;;;;;;;;;4986765;28;20060;-71
2023/03/16 09:55:52;;;;;;;8.82;4.15;;;;;;;;;;4991903;28;20042;-70
2023/03/16 09:58:38;;;;;;;10.55;4.35;;;;;;;;;;4991449;28;20030;-73
2023/03/16 10:01:42;;;;;;;7.57;4.40;;;;;;;;;;4988847;28;20049;-74
2023/03/16 10:04:33;;;;;;;10.65;5.13;;;;;;;;;;4990855;28;20038;-75
2023/03/16 10:07:24;;;;;;;9.48;4.20;;;;;;;;;;5001423;28;20046;-74
2023/03/16 10:10:09;;;;;;;8.45;4.53;;;;;;;;;;5009336;28;20022;-74
2023/03/16 10:12:57;;;;;;;7.63;4.40;;;;;;;;;;5022634;28;20243;-73
2023/03/16 10:15:44;;;;;;;9.27;4.65;;;;;;;;;;5023653;28;20404;-82
2023/03/16 10:18:31;;;;;;;11.13;5.55;;;;;;;;;;5003679;28;20036;-85
2023/03/16 10:21:18;;;;;;;8.40;4.53;;;;;;;;;;5019031;28;20026;-81
2023/03/16 10:24:04;;;;;;;5.68;4.05;;;;;;;;;;5010083;28;20025;-82
2023/03/16 10:26:53;;;;;;;8.25;4.05;;;;;;;;;;5020002;28;20030;-82
2023/03/16 10:29:38;;;;;;;9.43;4.57;;;;;;;;;;5016964;28;21224;-79
2023/03/16 10:32:27;;;;;;;6.53;3.92;;;;;;;;;;5000405;28;20045;-79
2023/03/16 10:35:28;;;;;;;14.10;4.57;;;;;;;;;;5016808;28;20033;-72
2023/03/16 10:38:25;;;;;;;8.10;4.20;;;;;;;;;;5019339;28;20038;-73
2023/03/16 10:41:17;;;;;;;11.40;5.35;;;;;;;;;;5025334;28;20108;-72
2023/03/16 10:44:08;;;;;;;9.80;3.90;;;;;;;;;;5015884;28;20032;-72
2023/03/16 10:47:02;;;;;;;6.07;4.03;;;;;;;;;;5026345;28;20115;-72
2023/03/16 10:49:50;;;;;;;6.38;3.33;;;;;;;;;;5012998;28;20037;-73
2023/03/16 10:52:46;;;;;;;7.97;3.67;;;;;;;;;;5011749;28;20041;-75
2023/03/16 10:55:40;;;;;;;5.57;3.00;;;;;;;;;;5020300;28;20045;-76
2023/03/16 10:58:29;;;;;;;6.47;4.00;;;;;;;;;;5008070;28;20033;-76
2023/03/16 11:01:17;;;;;;;7.30;3.88;;;;;;;;;;4998107;28;20083;-77
2023/03/16 11:04:10;;;;;;;5.70;3.80;;;;;;;;;;5008038;28;20036;-76
2023/03/16 11:06:56;;;;;;;5.57;3.03;;;;;;;;;;5018447;28;20036;-76
2023/03/16 11:09:42;;;;;;;4.95;3.10;;;;;;;;;;5004662;28;20025;-75
2023/03/16 11:12:30;;;;;;;3.97;2.58;;;;;;;;;;4994898;28;20032;-83
2023/03/16 11:15:17;;;;;;;5.43;2.90;;;;;;;;;;5009158;28;20610;-75
2023/03/16 11:18:02;;;;;;;9.75;3.08;;;;;;;;;;5001867;28;20033;-74
2023/03/16 11:20:48;;;;;;;5.05;3.00;;;;;;;;;;5031158;28;20335;-73
2023/03/16 11:23:37;;;;;;;5.70;3.47;;;;;;;;;;5010755;28;20091;-75
2023/03/16 11:26:37;;;;;;;4.65;3.35;;;;;;;;;;4998335;28;20037;-75
2023/03/16 11:29:34;;;;;;;6.72;3.00;;;;;;;;;;5016271;28;20041;-72
2023/03/16 11:32:24;;;;;;;5.25;2.72;;;;;;;;;;5019791;28;20033;-75
2023/03/16 11:35:10;;;;;;;;;;;;;;;;;;5007123;28;20037;-74
2023/03/16 11:38:08;;;;;;;6.75;3.28;;;;;;;;;;5021760;28;19912;-75
2023/03/16 11:41:00;;;;;;;4.68;2.97;;;;;;;;;;5029172;28;20071;-82
2023/03/16 11:43:46;;;;;;;5.13;2.90;;;;;;;;;;5015322;28;20481;-80
2023/03/16 11:46:47;;;;;;;5.18;2.58;;;;;;;;;;5012673;28;20492;-73
2023/03/16 11:49:43;;;;;;;5.07;2.70;;;;;;;;;;5037720;28;20545;-75
2023/03/16 11:52:28;;;;;;;6.10;3.55;;;;;;;;;;5020214;28;20207;-64
2023/03/16 11:55:24;;;;;;;4.60;2.53;;;;;;;;;;5018869;28;20037;-64
2023/03/16 11:58:16;;;;;;;4.68;3.13;;;;;;;;;;5011971;28;20060;-75
2023/03/16 12:01:10;;;;;;;4.97;2.38;;;;;;;;;;5022460;28;20600;-68
2023/03/16 12:03:57;;;;;;;4.20;2.20;;;;;;;;;;5024849;28;20120;-69
2023/03/16 12:06:59;;;;;;;3.42;2.08;;;;;;;;;;5023543;28;20037;-68
2023/03/16 12:09:49;;;;;;;5.53;2.33;;;;;;;;;;5018982;28;20033;-77
2023/03/16 12:12:41;;;;;;;5.07;1.80;;;;;;;;;;5008440;28;20033;-79
2023/03/16 12:15:46;;;;;;;3.83;2.35;;;;;;;;;;5021927;28;20036;-79
2023/03/16 12:18:42;;;;;;;3.08;2.30;;;;;;;;;;5015532;28;20048;-74
2023/03/16 12:21:33;;;;;;;3.35;2.10;;;;;;;;;;5020276;28;20555;-72
2023/03/16 12:24:21;;;;;;;5.57;2.40;;;;;;;;;;4990637;28;20045;-68
2023/03/16 12:27:10;;;;;;;5.97;2.08;;;;;;;;;;5017291;28;20103;-67
2023/03/16 12:29:57;;;;;;;4.20;2.45;;;;;;;;;;5036984;28;20256;-69
2023/03/16 12:32:52;;;;;;;4.90;2.42;;;;;;;;;;5019535;28;20045;-72
2023/03/16 12:35:41;;;;;;;3.15;2.17;;;;;;;;;;5007971;28;20031;-71
2023/03/16 12:38:26;;;;;;;6.05;2.83;;;;;;;;;;5012751;28;20041;-71
2023/03/16 12:41:22;;;;;;;5.50;2.75;;;;;;;;;;5019338;28;20037;-69
2023/03/16 12:44:11;;;;;;;3.72;2.08;;;;;;;;;;5023938;28;20072;-66
2023/03/16 12:47:06;;;;;;;4.03;2.60;;;;;;;;;;5007290;28;20033;-64
2023/03/16 12:49:52;;;;;;;3.13;2.28;;;;;;;;;;5013850;28;20037;-62
2023/03/16 12:52:41;;;;;;;4.88;3.13;;;;;;;;;;5031023;28;20052;-66
2023/03/16 12:55:36;;;;;;;6.20;2.40;;;;;;;;;;5034021;28;20056;-64
2023/03/16 12:58:22;;;;;;;5.05;2.50;;;;;;;;;;5020046;28;20112;-67
2023/03/16 13:01:10;;;;;;;4.78;2.20;;;;;;;;;;5021058;28;20029;-68
2023/03/16 13:04:00;;;;;;;5.68;3.00;;;;;;;;;;5036597;28;20108;-74
2023/03/16 13:06:49;;;;;;;4.60;2.38;;;;;;;;;;5016848;28;20053;-69
2023/03/16 13:09:35;;;;;;;5.75;2.47;;;;;;;;;;5007500;28;20033;-70
2023/03/16 13:12:22;;;;;;;2.30;1.63;;;;;;;;;;5012732;28;20078;-70
2023/03/16 13:15:16;;;;;;;3.55;1.80;;;;;;;;;;5016814;28;20041;-77
2023/03/16 13:18:01;;;;;;;4.53;1.80;;;;;;;;;;5017745;28;20049;-77
2023/03/16 13:20:57;;;;;;;3.67;2.03;;;;;;;;;;5009175;28;20025;-76
2023/03/16 13:23:54;;;;;;;4.22;1.88;;;;;;;;;;5013250;28;20116;-72
2023/03/16 13:26:42;;;;;;;3.13;2.17;;;;;;;;;;5022684;28;20044;-70
2023/03/16 13:29:28;;;;;;;5.65;2.55;;;;;;;;;;5006359;28;20092;-70
2023/03/16 13:32:17;;;;;;;4.03;2.20;;;;;;;;;;5006747;28;20117;-70
2023/03/16 13:35:04;;;;;;;3.20;1.77;;;;;;;;;;5013479;28;20035;-72
2023/03/16 13:37:49;;;;;;;3.55;1.92;;;;;;;;;;5022723;28;20033;-76
2023/03/16 13:40:44;;;;;;;5.97;2.40;;;;;;;;;;5018279;28;20029;-77
2023/03/16 13:43:36;;;;;;;7.38;2.38;;;;;;;;;;5006007;28;20042;-80
2023/03/16 13:46:26;;;;;;;3.55;1.90;;;;;;;;;;5021857;28;20048;-80
2023/03/16 13:49:11;;;;;;;3.65;1.75;;;;;;;;;;5022613;28;20044;-79
2023/03/16 13:51:57;;;;;;;6.18;3.25;;;;;;;;;;5002413;28;20098;-78
2023/03/16 13:54:42;;;;;;;5.00;1.80;;;;;;;;;;5005790;28;20037;-80
2023/03/16 13:57:29;;;;;;;3.17;2.00;;;;;;;;;;5008785;28;20087;-81
2023/03/16 14:00:17;;;;;;;4.55;2.15;;;;;;;;;;5019879;28;20036;-80
2023/03/16 14:03:07;;;;;;;4.38;2.25;;;;;;;;;;5037778;28;20029;-78
2023/03/16 14:05:55;;;;;;;6.30;3.08;;;;;;;;;;5005853;28;20107;-79
2023/03/16 14:08:44;;;;;;;2.72;1.70;;;;;;;;;;5013381;28;20063;-77
2023/03/16 14:11:29;;;;;;;4.57;1.75;;;;;;;;;;5019491;28;20417;-77
2023/03/16 14:14:15;;;;;;;4.00;2.22;;;;;;;;;;5016034;28;20043;-77
2023/03/16 14:17:04;;;;;;;7.07;1.58;;;;;;;;;;5011742;28;20030;-76
2023/03/16 14:19:51;;;;;;;2.45;1.70;;;;;;;;;;5012147;28;20151;-79
2023/03/16 14:22:36;;;;;;;3.63;2.15;;;;;;;;;;5023781;28;20563;-78
2023/03/16 14:25:24;;;;;;;4.35;1.80;;;;;;;;;;5012705;28;20029;-78
2023/03/16 14:28:14;;;;;;;2.67;1.85;;;;;;;;;;5009190;28;20036;-80
2023/03/16 14:31:03;;;;;;;3.88;1.83;;;;;;;;;;5018113;28;20593;-80
2023/03/16 14:33:58;;;;;;;2.65;1.50;;;;;;;;;;5016851;28;20025;-77
2023/03/16 14:36:43;;;;;;;2.55;1.77;;;;;;;;;;5023283;28;20423;-76
2023/03/16 14:39:28;;;;;;;2.97;1.70;;;;;;;;;;5005277;28;20032;-78
2023/03/16 14:42:27;;;;;;;3.40;1.70;;;;;;;;;;5016175;28;20092;-75
2023/03/16 14:45:14;;;;;;;2.08;1.55;;;;;;;;;;5027247;28;20065;-73
2023/03/16 14:48:02;;;;;;;4.28;1.65;;;;;;;;;;5009386;28;20040;-75
2023/03/16 14:50:51;;;;;;;6.15;2.10;;;;;;;;;;5015934;28;20109;-75
2023/03/16 14:53:37;;;;;;;2.35;1.67;;;;;;;;;;4999496;28;20028;-74
2023/03/16 14:56:22;;;;;;;1.67;1.48;;;;;;;;;;5020981;28;20033;-76
2023/03/16 14:59:08;;;;;;;3.63;1.80;;;;;;;;;;5011676;28;20032;-77
2023/03/16 15:01:55;;;;;;;3.30;1.65;;;;;;;;;;4995676;28;20609;-76
2023/03/16 15:04:40;;;;;;;4.22;2.17;;;;;;;;;;5014080;28;20040;-77
2023/03/16 15:07:28;;;;;;;4.53;2.08;;;;;;;;;;5014029;28;20124;-76
2023/03/16 15:10:14;;;;;;;4.00;1.65;;;;;;;;;;5019012;28;20377;-67
2023/03/16 15:13:12;;;;;;;1.95;1.50;;;;;;;;;;5006339;28;20481;-77
2023/03/16 15:15:57;;;;;;;4.65;2.40;;;;;;;;;;5007295;28;20036;-67
2023/03/16 15:18:43;;;;;;;4.45;2.35;;;;;;;;;;5016334;28;20514;-67
2023/03/16 15:21:28;;;;;;;3.83;1.92;;;;;;;;;;5016933;28;20041;-66
2023/03/16 15:24:13;;;;;;;3.72;2.00;;;;;;;;;;4997500;28;20049;-65
2023/03/16 15:26:59;;;;;;;3.50;1.70;;;;;;;;;;5010137;28;20045;-67
2023/03/16 15:29:44;;;;;;;3.75;2.08;;;;;;;;;;5023274;28;20029;-69
2023/03/16 15:32:30;;;;;;;3.13;1.92;;;;;;;;;;5019690;28;20037;-80
2023/03/16 15:35:15;;;;;;;5.28;1.63;;;;;;;;;;5025523;28;20033;-79
2023/03/16 15:38:02;;;;;;;2.67;1.40;;;;;;;;;;5005618;28;20037;-80
2023/03/16 15:40:50;;;;;;;2.72;1.33;;;;;;;;;;5016089;28;20080;-79
2023/03/16 15:43:36;;;;;;;5.88;1.60;;;;;;;;;;5036466;28;20435;-81
2023/03/16 15:46:21;;;;;;;2.47;1.50;;;;;;;;;;5020689;28;20040;-80
2023/03/16 15:49:07;;;;;;;5.18;2.22;;;;;;;;;;5025822;28;20037;-78
2023/03/16 15:51:52;;;;;;;2.25;1.65;;;;;;;;;;5008984;28;20724;-73
2023/03/16 15:54:37;;;;;;;2.97;1.35;;;;;;;;;;5029158;28;20072;-73
2023/03/16 15:57:23;;;;;;;3.35;1.75;;;;;;;;;;5027687;28;20029;-73
2023/03/16 16:00:19;;;;;;;3.78;1.48;;;;;;;;;;5021914;28;20057;-72
2023/03/16 16:03:05;;;;;;;8.25;1.70;;;;;;;;;;5021590;28;20396;-74
2023/03/16 16:05:50;;;;;;;3.03;1.65;;;;;;;;;;5021049;28;20073;-71
2023/03/16 16:08:36;;;;;;;3.00;2.10;;;;;;;;;;5021363;28;20109;-66
2023/03/16 16:11:25;;;;;;;4.00;1.80;;;;;;;;;;5024495;28;20120;-70
2023/03/16 16:14:13;;;;;;;5.10;1.70;;;;;;;;;;5021983;28;20203;-71
2023/03/16 16:16:59;;;;;;;4.30;2.10;;;;;;;;;;5023105;28;20492;-67
2023/03/16 16:19:44;;;;;;;3.40;1.60;;;;;;;;;;5024199;28;20034;-66
2023/03/16 16:22:29;;;;;;;5.78;2.53;;;;;;;;;;5022008;28;20448;-68
2023/03/16 16:25:15;;;;;;;3.90;1.70;;;;;;;;;;5012858;28;20185;-73
2023/03/16 16:28:00;;;;;;;5.68;1.80;;;;;;;;;;5001648;28;20070;-66
2023/03/16 16:30:46;;;;;;;2.53;1.65;;;;;;;;;;5024954;28;20550;-67
2023/03/16 16:33:34;;;;;;;2.50;1.48;;;;;;;;;;5021809;28;20036;-66
2023/03/16 16:36:20;;;;;;;6.63;1.90;;;;;;;;;;5014363;28;20079;-66